createdAt,value
2022-08-16T00:04:59.896Z,99272.56
2022-08-16T00:10:04.470Z,99271.19
2022-08-16T00:15:17.281Z,99276.81
2022-08-16T00:20:22.070Z,99279.84
2022-08-16T00:26:33.689Z,99291.72
2022-08-16T00:30:51.888Z,99274.91
2022-08-16T00:35:56.330Z,99277.78
2022-08-16T00:41:01.297Z,99276.38
2022-08-16T00:46:33.132Z,99282.34
2022-08-16T00:51:34.721Z,99287.44
2022-08-16T00:56:57.867Z,99290.81
2022-08-16T01:02:30.694Z,99290.13
2022-08-16T01:07:51.227Z,99289.44
2022-08-16T01:12:53.048Z,99286.50
2022-08-16T01:17:59.825Z,99295.59
2022-08-16T01:23:09.624Z,99296.59
2022-08-16T01:28:19.664Z,99290.50
2022-08-16T01:33:25.169Z,99289.44
2022-08-16T01:38:39.536Z,99286.22
2022-08-16T01:43:47.408Z,99282.84
2022-08-16T01:49:01.034Z,99289.19
2022-08-16T01:54:04.177Z,99287.25
2022-08-16T01:59:15.478Z,99284.16
2022-08-16T02:04:40.085Z,99290.94
2022-08-16T02:09:42.567Z,99287.44
2022-08-16T02:15:02.462Z,99286.78
2022-08-16T02:20:11.573Z,99290.03
2022-08-16T02:25:17.455Z,99290.88
2022-08-16T02:30:36.520Z,99285.28
2022-08-16T02:35:54.231Z,99297.69
2022-08-16T02:41:07.289Z,99294.09
2022-08-16T02:46:15.859Z,99302.22
2022-08-16T02:51:23.351Z,99293.09
2022-08-16T02:56:32.387Z,99302.22
2022-08-16T03:01:37.612Z,99286.13
2022-08-16T03:06:47.797Z,99303.41
2022-08-16T03:11:57.302Z,99290.88
2022-08-16T03:17:02.461Z,99302.56
2022-08-16T03:22:10.467Z,99308.16
2022-08-16T03:27:14.770Z,99314.06
2022-08-16T03:32:19.053Z,99314.13
2022-08-16T03:37:23.266Z,99327.63
2022-08-16T03:42:26.804Z,99337.72
2022-08-16T03:47:36.652Z,99339.81
2022-08-16T03:52:39.463Z,99350.22
2022-08-16T03:57:52.103Z,99349.97
2022-08-16T04:03:02.723Z,99337.69
2022-08-16T04:08:22.508Z,99346.88
2022-08-16T04:13:59.962Z,99350.31
2022-08-16T04:19:02.456Z,99355.72
2022-08-16T04:24:07.804Z,99358.44
2022-08-16T04:29:17.077Z,99367.66
2022-08-16T04:34:34.723Z,99368.66
2022-08-16T04:39:46.809Z,99360.53
2022-08-16T04:45:02.016Z,99367.06
2022-08-16T04:50:14.360Z,99371.59
2022-08-16T04:55:37.835Z,99380.44
2022-08-16T05:00:42.024Z,99369.63
2022-08-16T05:05:59.533Z,99375.59
2022-08-16T05:11:10.478Z,99375.88
2022-08-16T05:16:19.881Z,99390.34
2022-08-16T05:21:36.009Z,99399.47
2022-08-16T05:26:51.355Z,99410.13
2022-08-16T05:31:55.207Z,99415.91
2022-08-16T05:36:59.565Z,99417.63
2022-08-16T05:42:10.797Z,99422.50
2022-08-16T05:47:16.201Z,99419.63
2022-08-16T05:52:24.567Z,99421.72
2022-08-16T05:57:34.634Z,99437.81
2022-08-16T06:02:38.954Z,99432.28
2022-08-16T06:07:59.028Z,99432.97
2022-08-16T06:13:09.464Z,99441.06
2022-08-16T06:18:14.254Z,99443.31
2022-08-16T06:23:19.345Z,99448.06
2022-08-16T06:28:36.263Z,99458.31
2022-08-16T06:33:44.715Z,99470.66
2022-08-16T06:38:56.671Z,99471.38
2022-08-16T06:44:28.763Z,99467.97
2022-08-16T06:49:36.535Z,99475.78
2022-08-16T06:54:41.211Z,99483.59
2022-08-16T06:59:53.166Z,99488.47
2022-08-16T07:05:15.093Z,99499.28
2022-08-16T07:10:26.656Z,99501.00
2022-08-16T07:15:31.668Z,99505.31
2022-08-16T07:20:47.898Z,99494.34
2022-08-16T07:25:54.507Z,99490.09
2022-08-16T07:30:59.934Z,99501.97
2022-08-16T07:36:10.600Z,99503.84
2022-08-16T07:41:20.341Z,99508.94
2022-08-16T07:46:39.214Z,99509.38
2022-08-16T07:51:50.092Z,99507.94
2022-08-16T07:57:00.815Z,99509.66
2022-08-16T08:02:05.535Z,99513.94
2022-08-16T08:07:16.159Z,99520.03
2022-08-16T08:12:32.522Z,99523.38
2022-08-16T08:17:43.743Z,99534.06
2022-08-16T08:22:59.973Z,99534.34
2022-08-16T08:28:11.097Z,99537.47
2022-08-16T08:33:16.474Z,99537.78
2022-08-16T08:38:43.972Z,99547.47
2022-08-16T08:43:46.380Z,99529.09
2022-08-16T08:48:59.397Z,99539.22
2022-08-16T08:54:09.071Z,99532.13
2022-08-16T08:59:19.818Z,99538.66
2022-08-16T09:04:24.449Z,99536.81
2022-08-16T09:09:33.298Z,99531.53
2022-08-16T09:14:39.523Z,99529.66
2022-08-16T09:19:57.824Z,99530.22
2022-08-16T09:25:11.103Z,99532.75
2022-08-16T09:30:34.611Z,99539.88
2022-08-16T09:35:42.782Z,99531.44
2022-08-16T09:40:47.924Z,99530.84
2022-08-16T09:45:54.546Z,99519.44
2022-08-16T09:50:57.414Z,99529.25
2022-08-16T09:56:02.178Z,99529.69
2022-08-16T10:01:06.753Z,99521.97
2022-08-16T10:06:11.764Z,99526.25
2022-08-16T10:11:32.226Z,99523.63
2022-08-16T10:16:59.663Z,99514.03
2022-08-16T10:22:05.661Z,99515.31
2022-08-16T10:27:26.453Z,99525.53
2022-08-16T10:32:32.628Z,99520.34
2022-08-16T10:37:36.617Z,99516.34
2022-08-16T10:42:39.561Z,99516.91
2022-08-16T10:47:45.466Z,99515.88
2022-08-16T10:52:49.436Z,99517.31
2022-08-16T10:57:56.172Z,99523.00
2022-08-16T11:03:02.747Z,99513.41
2022-08-16T11:08:11.710Z,99508.50
2022-08-16T11:18:48.410Z,99507.75
2022-08-16T11:24:41.973Z,99512.16
2022-08-16T11:29:31.377Z,99507.69
2022-08-16T11:35:03.974Z,99510.06
2022-08-16T11:39:59.818Z,99522.94
2022-08-16T11:45:02.954Z,99526.03
2022-08-16T11:50:10.121Z,99520.00
2022-08-16T11:55:14.148Z,99514.97
2022-08-16T12:00:33.996Z,99510.06
2022-08-16T12:05:45.267Z,99506.66
2022-08-16T12:10:48.269Z,99511.75
2022-08-16T12:15:51.186Z,99505.19
2022-08-16T12:20:58.347Z,99502.47
2022-08-16T12:26:06.310Z,99508.75
2022-08-16T12:31:14.228Z,99512.13
2022-08-16T12:36:18.376Z,99503.16
2022-08-16T12:41:24.350Z,99505.00
2022-08-16T12:46:28.013Z,99507.44
2022-08-16T12:51:58.599Z,99501.84
2022-08-16T12:56:57.676Z,99506.09
2022-08-16T13:02:00.709Z,99502.53
2022-08-16T13:07:08.394Z,99507.81
2022-08-16T13:12:19.912Z,99501.19
2022-08-16T13:17:29.724Z,99493.06
2022-08-16T13:22:34.430Z,99493.78
2022-08-16T13:28:03.100Z,99490.09
2022-08-16T13:33:00.577Z,99485.94
2022-08-16T13:38:05.130Z,99478.38
2022-08-16T13:43:11.424Z,99488.41
2022-08-16T13:48:24.869Z,99476.88
2022-08-16T13:53:29.862Z,99475.84
2022-08-16T13:58:36.850Z,99478.75
2022-08-16T14:03:54.743Z,99470.28
2022-08-16T14:09:06.467Z,99471.81
2022-08-16T14:14:11.173Z,99471.66
2022-08-16T14:19:18.366Z,99461.13
2022-08-16T14:24:30.530Z,99470.81
2022-08-16T14:29:35.175Z,99475.06
2022-08-16T14:34:41.451Z,99464.72
2022-08-16T14:39:48.758Z,99466.13
2022-08-16T14:44:52.923Z,99458.34
2022-08-16T14:49:57.226Z,99456.63
2022-08-16T14:55:01.316Z,99456.28
2022-08-16T15:00:06.670Z,99459.19
2022-08-16T15:05:12.759Z,99459.59
2022-08-16T15:10:24.155Z,99447.94
2022-08-16T15:15:29.769Z,99452.53
2022-08-16T15:20:35.185Z,99458.34
2022-08-16T15:25:42.253Z,99453.09
2022-08-16T15:30:59.225Z,99461.44
2022-08-16T15:36:05.511Z,99457.72
2022-08-16T15:41:13.413Z,99466.25
2022-08-16T15:46:35.297Z,99461.16
2022-08-16T15:51:48.525Z,99454.53
2022-08-16T15:56:55.304Z,99450.63
2022-08-16T16:01:59.300Z,99453.56
2022-08-16T16:07:03.645Z,99456.63
2022-08-16T16:12:42.031Z,99459.03
2022-08-16T16:17:32.107Z,99449.66
2022-08-16T16:22:35.023Z,99454.09
2022-08-16T16:27:39.137Z,99456.31
2022-08-16T16:32:42.185Z,99461.91
2022-08-16T16:37:45.018Z,99455.28
2022-08-16T16:42:51.103Z,99459.22
2022-08-16T16:47:54.401Z,99458.38
2022-08-16T16:52:57.891Z,99451.91
2022-08-16T16:58:29.027Z,99457.03
2022-08-16T17:03:38.769Z,99460.41
2022-08-16T17:08:42.997Z,99465.84
2022-08-16T17:13:48.019Z,99464.69
2022-08-16T17:19:15.288Z,99471.44
2022-08-16T17:24:18.313Z,99453.94
2022-08-16T17:29:23.449Z,99465.69
2022-08-16T17:34:34.588Z,99478.97
2022-08-16T17:40:00.258Z,99478.09
2022-08-16T17:45:05.646Z,99484.03
2022-08-16T17:50:10.041Z,99490.53
2022-08-16T17:55:21.687Z,99487.13
2022-08-16T18:00:27.062Z,99494.59
2022-08-16T18:05:31.436Z,99499.72
2022-08-16T18:10:36.294Z,99500.41
2022-08-16T18:15:42.423Z,99504.47
2022-08-16T18:21:02.878Z,99511.78
2022-08-16T18:26:07.890Z,99505.81
2022-08-16T18:31:12.107Z,99509.56
2022-08-16T18:36:21.107Z,99516.19
2022-08-16T18:41:27.206Z,99519.63
2022-08-16T18:46:31.587Z,99527.78
2022-08-16T18:51:34.484Z,99530.16
2022-08-16T18:56:56.073Z,99540.38
2022-08-16T19:02:05.119Z,99537.66
2022-08-16T19:07:08.582Z,99547.03
2022-08-16T19:12:11.375Z,99547.19
2022-08-16T19:17:20.255Z,99557.03
2022-08-16T19:22:45.277Z,99555.53
2022-08-16T19:27:51.471Z,99560.94
2022-08-16T19:32:56.589Z,99565.75
2022-08-16T19:37:59.685Z,99570.66
2022-08-16T19:43:02.578Z,99576.13
2022-08-16T19:48:10.832Z,99585.63
2022-08-16T19:53:19.160Z,99591.59
2022-08-16T19:58:22.922Z,99592.97
2022-08-16T20:03:27.136Z,99596.69
2022-08-16T20:08:30.335Z,99586.31
2022-08-16T20:13:34.036Z,99589.19
2022-08-16T20:18:38.297Z,99586.81
2022-08-16T20:23:41.153Z,99596.44
2022-08-16T20:28:53.552Z,99594.25
2022-08-16T20:33:58.827Z,99592.56
2022-08-16T20:39:04.124Z,99593.59
2022-08-16T20:44:06.926Z,99596.44
2022-08-16T20:49:14.129Z,99591.19
2022-08-16T20:54:16.891Z,99594.94
2022-08-16T20:59:19.948Z,99594.09
2022-08-16T21:04:26.271Z,99602.44
2022-08-16T21:09:33.429Z,99600.09
2022-08-16T21:14:36.846Z,99602.13
2022-08-16T21:19:41.595Z,99609.78
2022-08-16T21:24:46.446Z,99607.88
2022-08-16T21:29:49.411Z,99609.41
2022-08-16T21:34:54.265Z,99611.69
2022-08-16T21:39:57.110Z,99608.78
2022-08-16T21:44:59.874Z,99606.22
2022-08-16T21:50:04.171Z,99617.63
2022-08-16T21:55:08.122Z,99626.13
2022-08-16T22:00:14.131Z,99626.44
2022-08-16T22:05:18.257Z,99619.81
2022-08-16T22:11:04.782Z,99625.22
2022-08-16T22:15:45.869Z,99624.91
2022-08-16T22:20:50.569Z,99625.13
2022-08-16T22:25:55.709Z,99621.50
2022-08-16T22:30:58.428Z,99624.75
2022-08-16T22:36:04.704Z,99631.22
2022-08-16T22:41:07.494Z,99635.09
2022-08-16T22:46:10.200Z,99643.38
2022-08-16T22:51:14.215Z,99628.25
2022-08-16T22:56:17.527Z,99634.06
2022-08-16T23:01:23.677Z,99626.38
2022-08-16T23:06:27.786Z,99628.56
2022-08-16T23:11:30.459Z,99619.22
2022-08-16T23:16:35.109Z,99615.13
2022-08-16T23:21:42.572Z,99620.72
2022-08-16T23:26:49.005Z,99615.63
2022-08-16T23:31:53.564Z,99614.41
2022-08-16T23:36:58.109Z,99619.31
2022-08-16T23:42:01.875Z,99615.59
2022-08-16T23:47:05.920Z,99613.03
2022-08-16T23:52:11.161Z,99613.47
2022-08-16T23:57:13.960Z,99609.50
